createdAt,value
2022-09-25T00:00:00.724Z,12.42
2022-09-25T00:01:00.817Z,12.37
2022-09-25T00:02:00.810Z,12.43
2022-09-25T00:03:00.797Z,12.39
2022-09-25T00:04:00.698Z,12.39
2022-09-25T00:05:00.692Z,12.43
2022-09-25T00:06:00.683Z,12.43
2022-09-25T00:07:00.680Z,12.42
2022-09-25T00:08:00.670Z,12.36
2022-09-25T00:09:00.663Z,12.36
2022-09-25T00:10:00.654Z,12.31
2022-09-25T00:11:00.653Z,12.42
2022-09-25T00:12:00.638Z,12.43
2022-09-25T00:13:00.637Z,12.39
2022-09-25T00:14:00.633Z,12.43
2022-09-25T00:15:00.627Z,12.28
2022-09-25T00:16:00.623Z,12.37
2022-09-25T00:17:00.687Z,12.39
2022-09-25T00:18:00.601Z,12.37
2022-09-25T00:19:00.596Z,12.42
2022-09-25T00:20:00.593Z,12.27
2022-09-25T00:21:00.583Z,12.36
2022-09-25T00:22:00.583Z,12.28
2022-09-25T00:23:00.569Z,12.28
2022-09-25T00:24:00.596Z,12.37
2022-09-25T00:25:00.561Z,12.36
2022-09-25T00:26:00.550Z,12.35
2022-09-25T00:27:00.546Z,12.37
2022-09-25T00:28:00.535Z,12.29
2022-09-25T00:29:00.531Z,12.27
2022-09-25T00:30:00.518Z,12.35
2022-09-25T00:31:00.584Z,12.24
2022-09-25T00:32:00.507Z,12.29
2022-09-25T00:33:00.504Z,12.22
2022-09-25T00:34:00.497Z,12.29
2022-09-25T00:35:00.489Z,12.13
2022-09-25T00:36:00.487Z,12.20
2022-09-25T00:37:00.477Z,12.13
2022-09-25T00:38:00.471Z,12.20
2022-09-25T00:39:00.466Z,12.24
2022-09-25T00:40:00.460Z,12.21
2022-09-25T00:41:00.512Z,12.10
2022-09-25T00:42:00.440Z,12.17
2022-09-25T00:43:00.520Z,12.22
2022-09-25T00:44:00.430Z,12.27
2022-09-25T00:45:00.421Z,12.17
2022-09-25T00:46:00.437Z,12.25
2022-09-25T00:47:00.407Z,12.17
2022-09-25T00:48:00.400Z,12.17
2022-09-25T00:49:00.396Z,12.21
2022-09-25T00:50:00.393Z,12.24
2022-09-25T00:51:00.385Z,12.21
2022-09-25T00:52:00.370Z,12.25
2022-09-25T00:53:00.379Z,12.21
2022-09-25T00:54:00.364Z,12.17
2022-09-25T00:55:00.356Z,12.18
2022-09-25T00:56:00.351Z,12.21
2022-09-25T00:57:00.339Z,12.06
2022-09-25T00:58:00.335Z,12.09
2022-09-25T00:59:00.410Z,12.13
2022-09-25T01:00:00.328Z,12.15
2022-09-25T01:01:00.408Z,12.09
2022-09-25T01:02:00.428Z,12.20
2022-09-25T01:03:00.367Z,12.21
2022-09-25T01:04:00.297Z,12.18
2022-09-25T01:05:00.288Z,12.15
2022-09-25T01:06:00.295Z,12.22
2022-09-25T01:07:00.280Z,12.20
2022-09-25T01:08:00.268Z,12.20
2022-09-25T01:09:00.270Z,12.17
2022-09-25T01:10:00.254Z,12.25
2022-09-25T01:11:00.254Z,12.18
2022-09-25T01:12:00.238Z,12.15
2022-09-25T01:13:00.236Z,12.10
2022-09-25T01:14:00.229Z,12.09
2022-09-25T01:15:00.220Z,12.15
2022-09-25T01:16:00.217Z,12.20
2022-09-25T01:17:00.238Z,12.12
2022-09-25T01:18:00.201Z,12.13
2022-09-25T01:19:00.195Z,12.20
2022-09-25T01:20:00.211Z,12.10
2022-09-25T01:21:00.181Z,12.10
2022-09-25T01:22:00.191Z,12.13
2022-09-25T01:23:00.180Z,12.12
2022-09-25T01:24:00.167Z,12.17
2022-09-25T01:25:00.162Z,12.10
2022-09-25T01:26:00.153Z,12.17
2022-09-25T01:27:00.144Z,12.12
2022-09-25T01:28:00.145Z,12.13
2022-09-25T01:29:00.139Z,12.17
2022-09-25T01:30:00.181Z,12.21
2022-09-25T01:31:00.290Z,12.22
2022-09-25T01:32:00.149Z,12.15
2022-09-25T01:33:00.149Z,12.13
2022-09-25T01:34:00.097Z,12.17
2022-09-25T01:35:00.103Z,12.17
2022-09-25T01:36:00.123Z,12.24
2022-09-25T01:37:00.076Z,12.17
2022-09-25T01:38:00.101Z,12.07
2022-09-25T01:39:00.064Z,12.09
2022-09-25T01:40:00.053Z,12.09
2022-09-25T01:41:00.071Z,12.07
2022-09-25T01:42:00.041Z,12.10
2022-09-25T01:43:00.034Z,12.10
2022-09-25T01:44:00.040Z,12.15
2022-09-25T01:45:00.026Z,12.13
2022-09-25T01:46:00.062Z,12.13
2022-09-25T01:47:00.063Z,12.10
2022-09-25T01:48:07.157Z,12.13
2022-09-25T01:50:03.986Z,12.18
2022-09-25T01:51:03.966Z,12.06
2022-09-25T01:52:57.068Z,12.06
2022-09-25T01:53:57.051Z,12.12
2022-09-25T01:56:01.038Z,12.07
2022-09-25T01:57:01.021Z,12.04
2022-09-25T01:58:53.936Z,12.07
2022-09-25T01:59:53.919Z,12.13
2022-09-25T02:01:57.919Z,12.17
2022-09-25T02:02:57.929Z,12.06
2022-09-25T02:05:01.879Z,12.10
2022-09-25T02:06:01.868Z,12.07
2022-09-25T02:07:54.971Z,12.10
2022-09-25T02:08:54.953Z,12.13
2022-09-25T02:10:58.953Z,12.09
2022-09-25T02:11:58.928Z,11.99
2022-09-25T02:14:03.012Z,12.13
2022-09-25T02:15:02.896Z,12.15
2022-09-25T02:17:06.878Z,12.17
2022-09-25T02:18:06.855Z,12.09
2022-09-25T02:19:59.952Z,12.09
2022-09-25T02:20:59.940Z,12.07
2022-09-25T02:23:03.992Z,12.09
2022-09-25T02:24:04.024Z,12.10
2022-09-25T02:26:07.973Z,12.07
2022-09-25T02:27:07.954Z,12.12
2022-09-25T02:29:00.877Z,12.10
2022-09-25T02:30:00.867Z,12.06
2022-09-25T02:32:04.869Z,12.09
2022-09-25T02:33:04.848Z,12.07
2022-09-25T02:35:08.835Z,12.00
2022-09-25T02:36:08.824Z,12.10
2022-09-25T02:38:12.816Z,11.97
2022-09-25T02:39:12.800Z,12.00
2022-09-25T02:41:16.787Z,12.17
2022-09-25T02:42:16.768Z,12.18
2022-09-25T02:44:20.768Z,12.25
2022-09-25T02:45:20.757Z,12.37
2022-09-25T02:47:24.770Z,12.43
2022-09-25T02:48:24.738Z,12.35
2022-09-25T02:49:24.733Z,12.42
2022-09-25T02:50:24.728Z,12.39
2022-09-25T02:51:24.718Z,12.43
2022-09-25T02:52:24.713Z,12.46
2022-09-25T02:53:24.704Z,12.45
2022-09-25T02:54:24.698Z,12.43
2022-09-25T02:55:24.681Z,12.46
2022-09-25T02:56:24.693Z,12.40
2022-09-25T02:57:24.675Z,12.49
2022-09-25T02:58:24.668Z,12.54
2022-09-25T02:59:24.662Z,12.54
2022-09-25T03:00:24.653Z,12.50
2022-09-25T03:01:24.686Z,12.57
2022-09-25T03:02:24.699Z,12.50
2022-09-25T03:03:24.635Z,12.46
2022-09-25T03:04:24.626Z,12.49
2022-09-25T03:05:24.620Z,12.50
2022-09-25T03:06:24.612Z,12.43
2022-09-25T03:07:24.604Z,12.50
2022-09-25T03:08:24.598Z,12.46
2022-09-25T03:09:24.593Z,12.46
2022-09-25T03:10:24.582Z,12.45
2022-09-25T03:11:24.577Z,12.47
2022-09-25T03:12:24.569Z,12.46
2022-09-25T03:13:24.561Z,12.49
2022-09-25T03:14:24.556Z,12.53
2022-09-25T03:15:24.552Z,12.45
2022-09-25T03:16:24.601Z,12.40
2022-09-25T03:17:24.532Z,12.40
2022-09-25T03:18:24.530Z,12.50
2022-09-25T03:19:24.518Z,12.50
2022-09-25T03:20:24.514Z,12.46
2022-09-25T03:21:24.505Z,12.32
2022-09-25T03:22:24.499Z,12.43
2022-09-25T03:23:24.490Z,12.50
2022-09-25T03:24:24.485Z,12.45
2022-09-25T03:25:24.476Z,12.45
2022-09-25T03:26:24.470Z,12.42
2022-09-25T03:27:24.463Z,12.43
2022-09-25T03:28:24.456Z,12.45
2022-09-25T03:29:24.449Z,12.45
2022-09-25T03:30:24.447Z,12.37
2022-09-25T03:31:24.460Z,12.35
2022-09-25T03:32:24.430Z,12.29
2022-09-25T03:33:24.420Z,12.35
2022-09-25T03:34:24.416Z,12.21
2022-09-25T03:35:24.408Z,12.25
2022-09-25T03:36:24.401Z,12.35
2022-09-25T03:37:24.394Z,12.21
2022-09-25T03:38:24.389Z,12.25
2022-09-25T03:39:24.385Z,12.27
2022-09-25T03:40:24.565Z,12.18
2022-09-25T03:41:24.366Z,12.18
2022-09-25T03:42:24.361Z,12.13
2022-09-25T03:43:24.355Z,12.15
2022-09-25T03:44:24.347Z,12.00
2022-09-25T03:45:24.339Z,12.12
2022-09-25T03:46:24.405Z,12.09
2022-09-25T03:47:24.326Z,12.15
2022-09-25T03:48:24.324Z,12.17
2022-09-25T03:49:24.312Z,12.09
2022-09-25T03:50:24.307Z,12.12
2022-09-25T03:51:24.299Z,12.10
2022-09-25T03:52:24.292Z,12.13
2022-09-25T03:53:24.285Z,12.12
2022-09-25T03:54:24.279Z,12.03
2022-09-25T03:55:24.272Z,12.17
2022-09-25T03:56:24.265Z,12.13
2022-09-25T03:57:24.261Z,12.07
2022-09-25T03:58:24.254Z,12.04
2022-09-25T03:59:24.244Z,12.12
2022-09-25T04:00:24.238Z,12.06
2022-09-25T04:01:24.302Z,12.00
2022-09-25T04:02:24.274Z,12.04
2022-09-25T04:03:24.226Z,12.02
2022-09-25T04:04:24.207Z,11.97
2022-09-25T04:05:24.201Z,12.04
2022-09-25T04:06:24.245Z,11.86
2022-09-25T04:07:24.190Z,12.04
2022-09-25T04:08:24.188Z,11.95
2022-09-25T04:09:24.175Z,11.91
2022-09-25T04:10:24.172Z,11.91
2022-09-25T04:11:24.180Z,12.03
2022-09-25T04:12:24.151Z,11.95
2022-09-25T04:13:24.147Z,11.99
2022-09-25T04:14:24.141Z,11.99
2022-09-25T04:15:24.132Z,11.91
2022-09-25T04:16:24.233Z,12.03
2022-09-25T04:17:24.119Z,11.99
2022-09-25T04:18:24.111Z,12.02
2022-09-25T04:19:24.104Z,11.86
2022-09-25T04:20:24.100Z,11.91
2022-09-25T04:21:24.091Z,11.97
2022-09-25T04:22:24.090Z,12.03
2022-09-25T04:23:24.079Z,12.03
2022-09-25T04:24:24.088Z,12.00
2022-09-25T04:25:24.624Z,11.97
2022-09-25T04:26:24.066Z,11.90
2022-09-25T04:27:24.049Z,11.99
2022-09-25T04:28:24.053Z,11.99
2022-09-25T04:29:24.048Z,11.91
2022-09-25T04:30:24.039Z,11.94
2022-09-25T04:31:24.074Z,11.91
2022-09-25T04:32:24.018Z,12.04
2022-09-25T04:33:24.011Z,12.00
2022-09-25T04:34:23.999Z,12.04
2022-09-25T04:35:24.004Z,11.97
2022-09-25T04:36:23.990Z,12.04
2022-09-25T04:37:23.978Z,12.02
2022-09-25T04:38:23.971Z,11.99
2022-09-25T04:39:23.968Z,12.00
2022-09-25T04:40:23.999Z,11.97
2022-09-25T04:41:23.952Z,11.97
2022-09-25T04:42:23.944Z,12.02
2022-09-25T04:43:23.937Z,11.97
2022-09-25T04:44:23.930Z,11.91
2022-09-25T04:45:23.921Z,11.94
2022-09-25T04:46:23.950Z,12.02
2022-09-25T04:47:23.909Z,11.95
2022-09-25T04:48:23.903Z,11.88
2022-09-25T04:49:23.893Z,11.94
2022-09-25T04:50:23.887Z,11.88
2022-09-25T04:51:23.882Z,11.95
2022-09-25T04:52:23.873Z,11.90
2022-09-25T04:53:23.866Z,11.86
2022-09-25T04:54:23.860Z,11.84
2022-09-25T04:55:23.853Z,11.87
2022-09-25T04:56:23.858Z,11.88
2022-09-25T04:57:53.475Z,11.88
2022-09-25T04:58:23.838Z,11.94
2022-09-25T04:59:23.826Z,11.80
2022-09-25T05:00:23.818Z,11.87
2022-09-25T05:01:23.869Z,11.87
2022-09-25T05:02:23.874Z,11.86
2022-09-25T05:03:23.840Z,11.84
2022-09-25T05:04:23.791Z,11.90
2022-09-25T05:05:23.784Z,11.88
2022-09-25T05:06:23.776Z,11.86
2022-09-25T05:07:23.771Z,11.88
2022-09-25T05:08:23.761Z,11.90
2022-09-25T05:09:23.755Z,11.87
2022-09-25T05:10:23.750Z,11.84
2022-09-25T05:11:23.742Z,11.86
2022-09-25T05:12:23.735Z,11.83
2022-09-25T05:13:23.731Z,11.88
2022-09-25T05:14:23.791Z,11.91
2022-09-25T05:15:23.715Z,11.84
2022-09-25T05:16:23.743Z,11.86
2022-09-25T05:17:23.700Z,11.75
2022-09-25T05:18:23.695Z,11.77
2022-09-25T05:19:23.688Z,11.77
2022-09-25T05:20:23.680Z,11.83
2022-09-25T05:21:23.673Z,11.78
2022-09-25T05:22:23.667Z,11.83
2022-09-25T05:23:23.661Z,11.72
2022-09-25T05:24:23.652Z,11.75
2022-09-25T05:25:23.648Z,11.78
2022-09-25T05:26:23.640Z,11.80
2022-09-25T05:27:23.632Z,11.78
2022-09-25T05:28:23.709Z,11.70
2022-09-25T05:29:23.618Z,11.77
2022-09-25T05:30:23.613Z,11.77
2022-09-25T05:31:23.641Z,11.78
2022-09-25T05:32:23.596Z,11.69
2022-09-25T05:33:23.591Z,11.65
2022-09-25T05:34:23.585Z,11.62
2022-09-25T05:35:23.583Z,11.60
2022-09-25T05:36:23.569Z,11.66
2022-09-25T05:37:23.564Z,11.66
2022-09-25T05:38:23.556Z,11.65
2022-09-25T05:39:23.549Z,11.68
2022-09-25T05:40:23.621Z,11.60
2022-09-25T05:41:23.534Z,11.62
2022-09-25T05:42:23.530Z,11.55
2022-09-25T05:43:23.521Z,11.63
2022-09-25T05:44:23.515Z,11.55
2022-09-25T05:45:23.507Z,11.69
2022-09-25T05:46:23.567Z,11.66
2022-09-25T05:47:23.495Z,11.63
2022-09-25T05:48:23.485Z,11.66
2022-09-25T05:49:23.480Z,11.63
2022-09-25T05:50:23.473Z,11.72
2022-09-25T05:51:23.467Z,11.81
2022-09-25T05:52:23.459Z,11.80
2022-09-25T05:53:23.451Z,11.73
2022-09-25T05:54:23.445Z,11.78
2022-09-25T05:55:23.438Z,11.80
2022-09-25T05:56:23.431Z,11.84
2022-09-25T05:57:23.423Z,11.87
2022-09-25T05:58:23.418Z,11.90
2022-09-25T05:59:23.412Z,11.94
2022-09-25T06:00:23.403Z,12.04
2022-09-25T06:01:23.436Z,12.00
2022-09-25T06:02:23.389Z,12.06
2022-09-25T06:03:23.451Z,12.13
2022-09-25T06:04:23.377Z,12.22
2022-09-25T06:05:23.368Z,12.21
2022-09-25T06:06:27.350Z,12.27
2022-09-25T06:07:23.355Z,12.35
2022-09-25T06:08:23.351Z,12.50
2022-09-25T06:09:23.339Z,12.70
2022-09-25T06:10:23.334Z,13.08
2022-09-25T06:11:23.328Z,13.50
2022-09-25T06:12:23.321Z,13.87
2022-09-25T06:13:23.313Z,14.23
2022-09-25T06:14:23.306Z,14.55
2022-09-25T06:15:23.302Z,14.85
2022-09-25T06:16:23.349Z,15.02
2022-09-25T06:17:23.288Z,15.07
2022-09-25T06:18:23.281Z,15.03
2022-09-25T06:19:23.275Z,15.03
2022-09-25T06:20:23.269Z,14.97
2022-09-25T06:21:23.263Z,15.00
2022-09-25T06:22:23.258Z,14.88
2022-09-25T06:23:23.252Z,14.88
2022-09-25T06:24:23.246Z,14.79
2022-09-25T06:25:23.246Z,14.81
2022-09-25T06:26:23.257Z,14.73
2022-09-25T06:27:23.228Z,14.59
2022-09-25T06:28:23.220Z,14.58
2022-09-25T06:29:23.215Z,14.55
2022-09-25T06:30:23.265Z,14.48
2022-09-25T06:31:23.257Z,14.44
2022-09-25T06:32:23.199Z,14.33
2022-09-25T06:33:23.191Z,14.36
2022-09-25T06:34:23.185Z,14.30
2022-09-25T06:35:23.180Z,14.29
2022-09-25T06:36:23.178Z,14.08
2022-09-25T06:37:23.167Z,14.14
2022-09-25T06:38:23.162Z,14.08
2022-09-25T06:39:23.157Z,14.04
2022-09-25T06:40:23.210Z,14.03
2022-09-25T06:41:23.149Z,13.96
2022-09-25T06:42:23.138Z,13.95
2022-09-25T06:43:23.137Z,13.92
2022-09-25T06:44:23.127Z,13.92
2022-09-25T06:45:23.121Z,13.89
2022-09-25T06:46:23.174Z,13.90
2022-09-25T06:47:26.730Z,13.87
2022-09-25T06:48:23.104Z,13.92
2022-09-25T06:49:23.096Z,13.86
2022-09-25T06:50:23.092Z,13.79
2022-09-25T06:51:23.086Z,13.87
2022-09-25T06:52:23.080Z,13.83
2022-09-25T06:53:23.076Z,13.79
2022-09-25T06:54:23.068Z,13.87
2022-09-25T06:55:23.123Z,13.79
2022-09-25T06:56:23.058Z,13.85
2022-09-25T06:57:23.050Z,13.95
2022-09-25T06:58:23.046Z,13.96
2022-09-25T06:59:23.040Z,14.08
2022-09-25T07:00:23.039Z,14.10
2022-09-25T07:01:23.076Z,14.17
2022-09-25T07:02:23.150Z,14.18
2022-09-25T07:03:23.019Z,14.22
2022-09-25T07:04:23.010Z,14.33
2022-09-25T07:05:23.009Z,14.36
2022-09-25T07:06:23.000Z,14.37
2022-09-25T07:07:22.994Z,14.30
2022-09-25T07:08:22.987Z,14.41
2022-09-25T07:09:22.981Z,14.47
2022-09-25T07:10:23.040Z,14.50
2022-09-25T07:11:22.972Z,14.55
2022-09-25T07:12:22.968Z,14.69
2022-09-25T07:13:22.961Z,14.79
2022-09-25T07:14:22.955Z,14.81
2022-09-25T07:15:22.952Z,14.88
2022-09-25T07:16:23.002Z,14.88
2022-09-25T07:17:22.938Z,14.89
2022-09-25T07:18:22.941Z,14.85
2022-09-25T07:19:27.568Z,14.77
2022-09-25T07:20:22.922Z,14.66
2022-09-25T07:21:22.917Z,14.66
2022-09-25T07:22:22.912Z,14.79
2022-09-25T07:23:22.907Z,14.88
2022-09-25T07:24:22.906Z,14.85
2022-09-25T07:25:22.896Z,14.88
2022-09-25T07:26:22.895Z,14.97
2022-09-25T07:27:22.886Z,15.18
2022-09-25T07:28:22.880Z,15.15
2022-09-25T07:29:22.875Z,15.17
2022-09-25T07:30:22.874Z,15.15
2022-09-25T07:31:22.905Z,15.17
2022-09-25T07:32:22.861Z,15.35
2022-09-25T07:33:22.852Z,15.43
2022-09-25T07:34:22.849Z,15.54
2022-09-25T07:35:22.852Z,15.49
2022-09-25T07:36:22.838Z,15.49
2022-09-25T07:37:22.833Z,15.54
2022-09-25T07:38:22.830Z,15.37
2022-09-25T07:39:22.826Z,15.35
2022-09-25T07:40:22.879Z,15.46
2022-09-25T07:41:22.971Z,15.49
2022-09-25T07:42:22.813Z,15.52
2022-09-25T07:43:22.805Z,15.67
2022-09-25T07:44:37.230Z,15.76
2022-09-25T07:45:22.795Z,15.90
2022-09-25T07:46:22.831Z,15.90
2022-09-25T07:47:22.788Z,15.90
2022-09-25T07:48:29.942Z,15.92
2022-09-25T07:50:15.930Z,15.77
2022-09-25T07:51:15.701Z,15.73
2022-09-25T07:53:08.813Z,15.73
2022-09-25T07:54:08.803Z,15.76
2022-09-25T07:56:12.813Z,15.37
2022-09-25T07:57:12.802Z,15.33
2022-09-25T07:59:05.738Z,15.27
2022-09-25T08:00:05.703Z,15.02
2022-09-25T08:02:09.728Z,14.94
2022-09-25T08:03:09.737Z,15.02
2022-09-25T08:05:13.662Z,15.04
2022-09-25T08:06:13.648Z,15.15
2022-09-25T08:08:17.643Z,15.29
2022-09-25T08:09:17.634Z,15.39
2022-09-25T08:11:10.608Z,15.15
2022-09-25T08:12:10.589Z,15.22
2022-09-25T08:14:03.829Z,15.14
2022-09-25T08:15:03.679Z,15.15
2022-09-25T08:17:07.667Z,15.11
2022-09-25T08:18:07.661Z,15.19
2022-09-25T08:20:11.649Z,15.22
2022-09-25T08:21:11.636Z,15.33
2022-09-25T08:23:15.607Z,15.55
2022-09-25T08:24:15.598Z,15.64
2022-09-25T08:26:19.583Z,15.76
2022-09-25T08:27:19.570Z,15.80
2022-09-25T08:29:12.536Z,15.73
2022-09-25T08:30:12.486Z,15.84
2022-09-25T08:31:12.533Z,15.98
2022-09-25T08:32:12.480Z,16.10
2022-09-25T08:33:15.423Z,16.13
2022-09-25T08:34:38.910Z,16.10
2022-09-25T08:35:12.466Z,16.28
2022-09-25T08:36:12.478Z,16.31
2022-09-25T08:37:12.458Z,16.46
2022-09-25T08:38:12.451Z,16.51
2022-09-25T08:39:12.445Z,16.49
2022-09-25T08:40:12.484Z,16.66
2022-09-25T08:41:12.435Z,16.71
2022-09-25T08:42:12.456Z,16.78
2022-09-25T08:43:12.429Z,16.86
2022-09-25T08:44:12.557Z,16.87
2022-09-25T08:45:22.008Z,16.89
2022-09-25T08:46:12.442Z,16.84
2022-09-25T08:47:17.052Z,16.93
2022-09-25T08:48:12.407Z,16.84
2022-09-25T08:49:12.405Z,16.97
2022-09-25T08:50:12.401Z,16.89
2022-09-25T08:51:12.395Z,16.90
2022-09-25T08:52:12.401Z,17.06
2022-09-25T08:53:12.386Z,16.94
2022-09-25T08:54:12.513Z,16.90
2022-09-25T08:55:12.470Z,16.90
2022-09-25T08:56:12.374Z,16.83
2022-09-25T08:57:12.370Z,16.99
2022-09-25T08:58:12.384Z,17.01
2022-09-25T08:59:12.362Z,17.14
2022-09-25T09:00:12.356Z,17.26
2022-09-25T09:01:12.380Z,17.33
2022-09-25T09:02:12.380Z,17.46
2022-09-25T09:03:12.347Z,17.45
2022-09-25T09:04:12.450Z,17.59
2022-09-25T09:05:12.339Z,17.64
2022-09-25T09:06:12.338Z,17.64
2022-09-25T09:07:28.279Z,17.64
2022-09-25T09:08:12.327Z,17.82
2022-09-25T09:09:12.324Z,17.92
2022-09-25T09:10:12.319Z,18.04
2022-09-25T09:11:13.682Z,18.05
2022-09-25T09:12:12.313Z,18.13
2022-09-25T09:13:12.312Z,18.04
2022-09-25T09:14:12.418Z,18.15
2022-09-25T09:15:12.311Z,18.25
2022-09-25T09:16:12.320Z,18.20
2022-09-25T09:17:12.302Z,18.29
2022-09-25T09:18:12.292Z,18.28
2022-09-25T09:19:12.303Z,18.18
2022-09-25T09:20:12.285Z,17.89
2022-09-25T09:21:12.281Z,17.52
2022-09-25T09:22:12.300Z,17.54
2022-09-25T09:23:15.477Z,17.63
2022-09-25T09:24:12.390Z,17.76
2022-09-25T09:25:12.270Z,17.92
2022-09-25T09:26:12.265Z,18.11
2022-09-25T09:27:12.264Z,18.13
2022-09-25T09:28:12.260Z,18.20
2022-09-25T09:29:12.254Z,18.13
2022-09-25T09:30:12.250Z,18.10
2022-09-25T09:31:12.297Z,18.16
2022-09-25T09:32:12.247Z,18.01
2022-09-25T09:33:12.243Z,18.11
2022-09-25T09:34:12.284Z,17.94
2022-09-25T09:35:12.241Z,18.04
2022-09-25T09:36:12.232Z,18.05
2022-09-25T09:37:12.231Z,18.11
2022-09-25T09:38:12.227Z,18.13
2022-09-25T09:39:12.223Z,18.16
2022-09-25T09:40:12.244Z,18.08
2022-09-25T09:41:12.214Z,18.10
2022-09-25T09:42:12.216Z,18.05
2022-09-25T09:43:12.210Z,18.13
2022-09-25T09:44:12.311Z,18.18
2022-09-25T09:45:12.210Z,18.16
2022-09-25T09:46:12.355Z,18.29
2022-09-25T09:47:12.200Z,18.29
2022-09-25T09:48:12.195Z,18.28
2022-09-25T09:49:12.196Z,18.19
2022-09-25T09:50:12.187Z,18.22
2022-09-25T09:51:12.187Z,18.35
2022-09-25T09:52:12.187Z,18.29
2022-09-25T09:53:12.178Z,18.31
2022-09-25T09:54:12.311Z,18.31
2022-09-25T09:55:12.174Z,18.28
2022-09-25T09:56:12.167Z,18.37
2022-09-25T09:57:12.167Z,18.33
2022-09-25T09:58:12.163Z,18.44
2022-09-25T09:59:12.159Z,18.45
2022-09-25T10:00:12.157Z,18.47
2022-09-25T10:01:36.551Z,18.44
2022-09-25T10:02:12.349Z,18.56
2022-09-25T10:03:12.247Z,18.56
2022-09-25T10:04:12.256Z,18.56
2022-09-25T10:05:12.141Z,18.58
2022-09-25T10:06:12.134Z,18.55
2022-09-25T10:07:12.135Z,18.65
2022-09-25T10:08:12.129Z,18.56
2022-09-25T10:09:12.129Z,18.52
2022-09-25T10:10:12.125Z,18.37
2022-09-25T10:11:12.128Z,18.37
2022-09-25T10:12:12.119Z,18.29
2022-09-25T10:13:12.114Z,18.35
2022-09-25T10:14:12.190Z,18.37
2022-09-25T10:15:12.112Z,18.28
2022-09-25T10:16:12.139Z,18.28
2022-09-25T10:17:12.102Z,18.19
2022-09-25T10:18:12.098Z,18.18
2022-09-25T10:19:12.096Z,18.10
2022-09-25T10:20:12.091Z,18.10
2022-09-25T10:21:12.090Z,18.08
2022-09-25T10:22:16.349Z,18.11
2022-09-25T10:23:15.129Z,18.03
2022-09-25T10:24:12.265Z,17.97
2022-09-25T10:25:12.076Z,17.95
2022-09-25T10:26:12.072Z,17.95
2022-09-25T10:27:12.077Z,17.95
2022-09-25T10:28:12.067Z,17.98
2022-09-25T10:29:12.066Z,17.85
2022-09-25T10:30:12.067Z,17.90
2022-09-25T10:31:12.078Z,17.92
2022-09-25T10:32:12.051Z,17.90
2022-09-25T10:33:12.050Z,17.92
2022-09-25T10:34:12.071Z,17.86
2022-09-25T10:35:12.042Z,17.85
2022-09-25T10:36:12.038Z,17.83
2022-09-25T10:37:12.042Z,17.79
2022-09-25T10:38:12.027Z,17.82
2022-09-25T10:39:42.413Z,17.63
2022-09-25T10:40:12.075Z,17.68
2022-09-25T10:41:12.022Z,17.51
2022-09-25T10:42:12.018Z,17.48
2022-09-25T10:43:12.018Z,17.57
2022-09-25T10:44:12.172Z,17.64
2022-09-25T10:45:12.007Z,17.56
2022-09-25T10:46:12.088Z,17.65
2022-09-25T10:47:12.002Z,17.70
2022-09-25T10:48:11.992Z,17.63
2022-09-25T10:49:12.060Z,17.67
2022-09-25T10:50:11.988Z,17.76
2022-09-25T10:51:11.985Z,17.64
2022-09-25T10:52:11.984Z,17.52
2022-09-25T10:53:11.988Z,17.46
2022-09-25T10:54:11.996Z,17.46
2022-09-25T10:55:11.971Z,17.54
2022-09-25T10:56:11.966Z,17.63
2022-09-25T10:57:11.965Z,17.65
2022-09-25T10:58:11.959Z,17.65
2022-09-25T10:59:11.959Z,17.71
2022-09-25T11:00:11.952Z,17.78
2022-09-25T11:01:11.991Z,17.89
2022-09-25T11:02:12.021Z,17.95
2022-09-25T11:03:17.030Z,17.97
2022-09-25T11:04:11.940Z,18.05
2022-09-25T11:05:11.953Z,17.98
2022-09-25T11:06:11.926Z,18.13
2022-09-25T11:07:11.930Z,18.15
2022-09-25T11:08:11.922Z,18.19
2022-09-25T11:09:11.914Z,18.28
2022-09-25T11:10:11.943Z,18.41
2022-09-25T11:11:11.925Z,18.49
2022-09-25T11:12:11.909Z,18.58
2022-09-25T11:13:11.901Z,18.63
2022-09-25T11:14:11.900Z,18.66
2022-09-25T11:15:11.897Z,18.73
2022-09-25T11:16:11.895Z,18.78
2022-09-25T11:17:11.890Z,18.98
2022-09-25T11:18:11.888Z,18.96
2022-09-25T11:19:11.883Z,18.98
2022-09-25T11:20:11.970Z,19.04
2022-09-25T11:21:11.876Z,19.12
2022-09-25T11:22:11.958Z,19.15
2022-09-25T11:23:11.870Z,19.21
2022-09-25T11:24:11.868Z,19.29
2022-09-25T11:25:11.869Z,19.29
2022-09-25T11:26:11.861Z,19.34
2022-09-25T11:27:11.862Z,19.34
2022-09-25T11:28:11.856Z,19.24
2022-09-25T11:29:11.978Z,19.18
2022-09-25T11:30:11.853Z,19.15
2022-09-25T11:31:11.918Z,19.04
2022-09-25T11:32:11.846Z,18.95
2022-09-25T11:33:11.842Z,18.99
2022-09-25T11:34:11.838Z,18.98
2022-09-25T11:35:11.836Z,19.00
2022-09-25T11:36:11.830Z,18.96
2022-09-25T11:37:11.828Z,19.02
2022-09-25T11:38:11.833Z,18.96
2022-09-25T11:39:11.825Z,18.77
2022-09-25T11:40:11.862Z,18.98
2022-09-25T11:41:11.845Z,18.96
2022-09-25T11:42:11.816Z,18.68
2022-09-25T11:43:11.814Z,18.63
2022-09-25T11:44:11.809Z,18.53
2022-09-25T11:45:11.806Z,18.62
2022-09-25T11:46:11.866Z,18.58
2022-09-25T11:47:11.805Z,18.44
2022-09-25T11:48:11.842Z,18.44
2022-09-25T11:49:12.494Z,18.41
2022-09-25T11:50:11.844Z,18.37
2022-09-25T11:51:11.795Z,18.37
2022-09-25T11:52:11.788Z,18.35
2022-09-25T11:53:11.779Z,18.23
2022-09-25T11:54:32.043Z,18.35
2022-09-25T11:55:11.773Z,18.31
2022-09-25T11:56:11.772Z,18.31
2022-09-25T11:57:11.775Z,18.26
2022-09-25T11:58:11.763Z,18.31
2022-09-25T11:59:11.760Z,18.33
2022-09-25T12:00:11.834Z,18.33
2022-09-25T12:01:11.816Z,18.41
2022-09-25T12:02:11.788Z,18.41
2022-09-25T12:03:11.747Z,18.40
2022-09-25T12:04:11.802Z,18.44
2022-09-25T12:05:11.742Z,18.44
2022-09-25T12:06:11.737Z,18.35
2022-09-25T12:07:11.737Z,18.37
2022-09-25T12:08:11.728Z,18.23
2022-09-25T12:09:11.725Z,18.20
2022-09-25T12:10:11.727Z,18.33
2022-09-25T12:11:11.721Z,18.25
2022-09-25T12:12:11.722Z,18.23
2022-09-25T12:13:11.712Z,18.16
2022-09-25T12:14:11.901Z,18.10
2022-09-25T12:15:11.706Z,18.15
2022-09-25T12:16:11.787Z,18.16
2022-09-25T12:17:11.704Z,18.28
2022-09-25T12:18:11.699Z,18.28
2022-09-25T12:19:11.697Z,18.40
2022-09-25T12:20:11.690Z,18.47
2022-09-25T12:21:11.727Z,18.53
2022-09-25T12:22:11.685Z,18.63
2022-09-25T12:23:11.679Z,18.59
2022-09-25T12:24:11.677Z,18.59
2022-09-25T12:25:11.674Z,18.62
2022-09-25T12:26:11.672Z,18.62
2022-09-25T12:27:11.671Z,18.62
2022-09-25T12:28:11.661Z,18.58
2022-09-25T12:29:11.660Z,18.63
2022-09-25T12:30:11.657Z,18.55
2022-09-25T12:31:11.687Z,18.60
2022-09-25T12:32:11.648Z,18.29
2022-09-25T12:33:11.643Z,18.35
2022-09-25T12:34:11.646Z,18.43
2022-09-25T12:35:11.641Z,18.58
2022-09-25T12:36:11.636Z,18.62
2022-09-25T12:37:11.629Z,18.63
2022-09-25T12:38:11.630Z,18.71
2022-09-25T12:39:11.628Z,18.80
2022-09-25T12:40:11.685Z,18.95
2022-09-25T12:41:11.618Z,18.89
2022-09-25T12:42:11.614Z,18.95
2022-09-25T12:43:11.614Z,18.99
2022-09-25T12:44:11.667Z,19.00
2022-09-25T12:45:11.605Z,18.98
2022-09-25T12:46:11.637Z,18.95
2022-09-25T12:47:11.598Z,18.96
2022-09-25T12:48:11.596Z,18.80
2022-09-25T12:49:11.597Z,18.86
2022-09-25T12:50:11.591Z,18.90
2022-09-25T12:51:11.586Z,18.98
2022-09-25T12:52:11.582Z,18.89
2022-09-25T12:53:11.581Z,18.90
2022-09-25T12:54:11.609Z,18.90
2022-09-25T12:55:11.574Z,18.90
2022-09-25T12:56:11.571Z,18.93
2022-09-25T12:57:11.565Z,18.96
2022-09-25T12:58:11.562Z,18.96
2022-09-25T12:59:11.561Z,18.98
2022-09-25T13:00:11.562Z,18.95
2022-09-25T13:01:11.603Z,18.95
2022-09-25T13:02:11.604Z,18.95
2022-09-25T13:03:11.556Z,19.07
2022-09-25T13:04:11.579Z,19.12
2022-09-25T13:05:11.541Z,19.08
2022-09-25T13:06:11.539Z,19.07
2022-09-25T13:07:11.538Z,19.11
2022-09-25T13:08:11.533Z,19.08
2022-09-25T13:09:11.529Z,19.09
2022-09-25T13:10:11.527Z,19.08
2022-09-25T13:11:11.525Z,19.12
2022-09-25T13:12:11.521Z,19.11
2022-09-25T13:13:13.140Z,19.14
2022-09-25T13:14:11.698Z,19.12
2022-09-25T13:15:11.516Z,19.12
2022-09-25T13:16:11.550Z,19.08
2022-09-25T13:17:11.505Z,19.08
2022-09-25T13:18:11.503Z,19.14
2022-09-25T13:19:11.501Z,19.22
2022-09-25T13:20:11.503Z,19.16
2022-09-25T13:21:11.492Z,19.04
2022-09-25T13:22:11.495Z,19.07
2022-09-25T13:23:11.490Z,18.99
2022-09-25T13:24:11.484Z,18.95
2022-09-25T13:25:11.481Z,19.02
2022-09-25T13:26:11.487Z,19.07